Powells Valley, Pennsylvania
Current Conditions -  °F | °C
As of 12:58 AM on Sunday 26 Oct 2014 (Local Time) from KMUI Reporting Station
Scattered Clouds Scattered Clouds  
Wind Chill: 62°   Ceiling: Unl
Heat Index: 62°   Visibility: 10mi
Dew Point: 46°   Wind: 8mph
Humidity: 56%   Direction: 280°W
Pressure: 29.62"   Gusts: NA
Location:  40.4949°N, 76.8115°W
Report Text: KMUI 260458Z AUTO 28007KT 10SM SCT090 17/08 A2962 RMK AO2 SLP031 T01670079 402060072 $
Loading
Personal Weather Stations






























Interactive Weather Map
Tropical Storm Tracking
New forecast layout! Learn more

10-Day Weather Forecast

Advertisements
Track Severe Weather on mobile